Hi Hat, KY (41636)

1:14 AM EST on February 27, 2015 (GMT -0500)
Sookeys Creek | Change Station
CLOSE
Current Station
Personal Weather Station
Location: Kentucky, KY
Elevation: 850 ft
Nearby Weather Stations
Active Advisory: Special Statement

Elev 850 ft 37.40 °N, 82.54 °W | Updated 20 seconds ago

Overcast
Overcast
28.0 °F
Feels Like 25 °F
N
3.1
Wind Variable Wind from East
Gusts 6.9 mph

Today
High -- | Low -- °F
--% Chance of Precip.
Yesterday
High -- | Low -- °F
Precip. -- in
7:05 AM 6:22 PM
Waxing Gibbous, 66% visible
Pressure 30.25 in
Visibility 4.0 miles
Clouds Scattered Clouds 1600 ft
Mostly Cloudy 3300 ft
Overcast 4900 ft
Windchill 25 °F
Dew Point 15 °F
Humidity 57%
Rainfall 0.00 in
Snow Depth Not available.
UV 0 out of 12
Pollen .50 out of 12
Air Quality Not available.
Flu Activity Not available.
METAR KSJS 270555Z AUTO 36004KT 4SM -SN SCT016 BKN033 OVC049 M06/M08 A3025 RMK AO2 T10571082 10008 21057

More Conditions Fewer Conditions

Pressure 30.25 in
Visibility 4.0 miles
Clouds Scattered Clouds 1600 ft
Mostly Cloudy 3300 ft
Overcast 4900 ft
Windchill 25 °F
Dew Point 15 °F
Humidity 57%
Rainfall 0.00 in
Snow Depth Not available.
UV 0 out of 12
Pollen .50 out of 12
Air Quality Not available.
Flu Activity Not available.
METAR KSJS 270555Z AUTO 36004KT 4SM -SN SCT016 BKN033 OVC049 M06/M08 A3025 RMK AO2 T10571082 10008 21057

More Conditions Fewer Conditions

10-Day Weather Forecast

Almanac

Astronomy

Feb. 27, 2015 Rise Set
Actual Time
Civil Twilight
Nautical Twilight
Astronomical Twilight
Moon
Length of Visible Light
Length of Day
Tomorrow will be .
, % of the Moon is Illuminated

Today's Extremes

State Highs State Lows

Community

WunderPhotos

Upload Photos

1,800,643 photos uploaded!

WunderBlogs® & News

Nearby

Air Quality

  Air Quality AQ Index Pollutant
Not available.

Snow Depth

Station Depth Elevation

Earthquake Activity

City Distance Mag. Time & Date
Minimum magnitude displayed is 2.5.

Coastal Water Temperatures

Place Temperature

Nearby Weather Stations

Special Statement
Statement as of 4:50 PM EST on February 26, 2015

... Light snow showers possible this evening and tonight...

Expect some snow showers to move into the area this evening and
continue into the night. Accumulations from this will be less
than a half an inch... with most places seeing little more than a
dusting. Arctic air pours into eastern Kentucky later tonight
with temperatures dropping into the teens for most of the area...
though some single digits will be possible for locations along and
north of Interstate 64. Be on the look out for potential slick
spots on area roads tonight as wet pavement will be prone to
freezing due to the Arctic air.


Shallenberger/greif